sensor_id;sensor_type;location;lat;lon;timestamp;P1;durP1;ratioP1;P2;durP2;ratioP2
32824;SDS011;51060;42.640;24.356;2023-06-26T00:00:01;5.90;;;3.60;;
32824;SDS011;51060;42.640;24.356;2023-06-26T00:02:29;4.35;;;3.22;;
32824;SDS011;51060;42.640;24.356;2023-06-26T00:04:57;5.15;;;3.80;;
32824;SDS011;51060;42.640;24.356;2023-06-26T00:07:23;3.58;;;3.22;;
32824;SDS011;51060;42.640;24.356;2023-06-26T00:09:49;4.00;;;3.42;;
32824;SDS011;51060;42.640;24.356;2023-06-26T00:12:14;4.35;;;3.58;;
32824;SDS011;51060;42.640;24.356;2023-06-26T00:14:40;6.65;;;3.90;;
32824;SDS011;51060;42.640;24.356;2023-06-26T00:17:06;5.90;;;4.10;;
32824;SDS011;51060;42.640;24.356;2023-06-26T00:19:31;6.50;;;3.80;;
32824;SDS011;51060;42.640;24.356;2023-06-26T00:21:58;4.35;;;3.78;;
32824;SDS011;51060;42.640;24.356;2023-06-26T00:24:23;5.82;;;4.10;;
32824;SDS011;51060;42.640;24.356;2023-06-26T00:26:49;5.75;;;3.92;;
32824;SDS011;51060;42.640;24.356;2023-06-26T00:29:15;6.60;;;4.15;;
32824;SDS011;51060;42.640;24.356;2023-06-26T00:31:41;4.30;;;3.90;;
32824;SDS011;51060;42.640;24.356;2023-06-26T00:34:07;6.25;;;4.63;;
32824;SDS011;51060;42.640;24.356;2023-06-26T00:36:32;6.18;;;3.88;;
32824;SDS011;51060;42.640;24.356;2023-06-26T00:38:58;4.85;;;4.10;;
32824;SDS011;51060;42.640;24.356;2023-06-26T00:41:24;6.03;;;4.40;;
32824;SDS011;51060;42.640;24.356;2023-06-26T00:43:50;5.72;;;4.03;;
32824;SDS011;51060;42.640;24.356;2023-06-26T00:46:16;4.70;;;4.18;;
32824;SDS011;51060;42.640;24.356;2023-06-26T00:48:42;4.90;;;4.13;;
32824;SDS011;51060;42.640;24.356;2023-06-26T00:51:09;4.72;;;4.07;;
32824;SDS011;51060;42.640;24.356;2023-06-26T00:53:35;6.88;;;4.18;;
32824;SDS011;51060;42.640;24.356;2023-06-26T00:56:01;5.07;;;4.55;;
32824;SDS011;51060;42.640;24.356;2023-06-26T00:58:27;6.38;;;4.15;;
32824;SDS011;51060;42.640;24.356;2023-06-26T01:00:53;5.57;;;4.00;;
32824;SDS011;51060;42.640;24.356;2023-06-26T01:03:22;6.82;;;4.35;;
32824;SDS011;51060;42.640;24.356;2023-06-26T01:05:48;6.40;;;4.60;;
32824;SDS011;51060;42.640;24.356;2023-06-26T01:08:15;4.60;;;3.70;;
32824;SDS011;51060;42.640;24.356;2023-06-26T01:10:41;5.80;;;4.18;;
32824;SDS011;51060;42.640;24.356;2023-06-26T01:13:11;6.38;;;4.60;;
32824;SDS011;51060;42.640;24.356;2023-06-26T01:15:38;5.43;;;4.55;;
32824;SDS011;51060;42.640;24.356;2023-06-26T01:18:03;9.77;;;5.40;;
32824;SDS011;51060;42.640;24.356;2023-06-26T01:20:31;7.65;;;4.88;;
32824;SDS011;51060;42.640;24.356;2023-06-26T01:26:07;7.07;;;5.25;;
32824;SDS011;51060;42.640;24.356;2023-06-26T01:28:46;6.53;;;5.50;;
32824;SDS011;51060;42.640;24.356;2023-06-26T01:31:13;7.80;;;5.47;;
32824;SDS011;51060;42.640;24.356;2023-06-26T01:33:40;6.63;;;4.95;;
32824;SDS011;51060;42.640;24.356;2023-06-26T01:36:06;6.50;;;5.20;;
32824;SDS011;51060;42.640;24.356;2023-06-26T01:38:32;7.68;;;5.15;;
32824;SDS011;51060;42.640;24.356;2023-06-26T01:40:59;5.85;;;5.25;;
32824;SDS011;51060;42.640;24.356;2023-06-26T01:46:16;7.25;;;4.95;;
32824;SDS011;51060;42.640;24.356;2023-06-26T01:48:55;7.88;;;5.63;;
32824;SDS011;51060;42.640;24.356;2023-06-26T01:51:32;5.90;;;5.30;;
32824;SDS011;51060;42.640;24.356;2023-06-26T01:54:01;6.05;;;5.03;;
32824;SDS011;51060;42.640;24.356;2023-06-26T01:56:26;7.57;;;5.47;;
32824;SDS011;51060;42.640;24.356;2023-06-26T01:58:53;7.10;;;5.50;;
32824;SDS011;51060;42.640;24.356;2023-06-26T02:01:20;7.50;;;5.97;;
32824;SDS011;51060;42.640;24.356;2023-06-26T02:03:46;9.63;;;6.68;;
32824;SDS011;51060;42.640;24.356;2023-06-26T02:06:12;8.70;;;6.10;;
32824;SDS011;51060;42.640;24.356;2023-06-26T02:08:38;8.13;;;6.78;;
32824;SDS011;51060;42.640;24.356;2023-06-26T02:11:04;9.43;;;6.80;;
32824;SDS011;51060;42.640;24.356;2023-06-26T02:13:29;8.90;;;7.70;;
32824;SDS011;51060;42.640;24.356;2023-06-26T02:15:55;11.30;;;8.32;;
32824;SDS011;51060;42.640;24.356;2023-06-26T02:18:20;9.68;;;8.68;;
32824;SDS011;51060;42.640;24.356;2023-06-26T02:20:48;13.02;;;10.70;;
32824;SDS011;51060;42.640;24.356;2023-06-26T02:23:13;12.18;;;10.82;;
32824;SDS011;51060;42.640;24.356;2023-06-26T02:25:39;12.50;;;10.73;;
32824;SDS011;51060;42.640;24.356;2023-06-26T02:28:04;12.80;;;10.88;;
32824;SDS011;51060;42.640;24.356;2023-06-26T02:30:30;14.60;;;10.77;;
32824;SDS011;51060;42.640;24.356;2023-06-26T02:32:56;13.23;;;11.07;;
32824;SDS011;51060;42.640;24.356;2023-06-26T02:35:21;13.05;;;10.70;;
32824;SDS011;51060;42.640;24.356;2023-06-26T02:37:47;12.00;;;10.68;;
32824;SDS011;51060;42.640;24.356;2023-06-26T02:40:12;14.77;;;11.10;;
32824;SDS011;51060;42.640;24.356;2023-06-26T02:42:38;13.23;;;11.45;;
32824;SDS011;51060;42.640;24.356;2023-06-26T02:45:04;14.30;;;11.57;;
32824;SDS011;51060;42.640;24.356;2023-06-26T02:47:29;13.43;;;10.70;;
32824;SDS011;51060;42.640;24.356;2023-06-26T02:49:55;13.57;;;11.52;;
32824;SDS011;51060;42.640;24.356;2023-06-26T02:52:20;11.25;;;10.00;;
32824;SDS011;51060;42.640;24.356;2023-06-26T02:54:46;12.30;;;9.52;;
32824;SDS011;51060;42.640;24.356;2023-06-26T02:57:12;12.60;;;9.43;;
32824;SDS011;51060;42.640;24.356;2023-06-26T02:59:38;10.90;;;9.25;;
32824;SDS011;51060;42.640;24.356;2023-06-26T03:02:04;10.77;;;9.35;;
32824;SDS011;51060;42.640;24.356;2023-06-26T03:04:30;13.07;;;9.85;;
32824;SDS011;51060;42.640;24.356;2023-06-26T03:06:55;11.93;;;9.38;;
32824;SDS011;51060;42.640;24.356;2023-06-26T03:09:21;11.55;;;10.02;;
32824;SDS011;51060;42.640;24.356;2023-06-26T03:11:47;10.82;;;9.70;;
32824;SDS011;51060;42.640;24.356;2023-06-26T03:14:12;11.93;;;10.27;;
32824;SDS011;51060;42.640;24.356;2023-06-26T03:16:38;12.55;;;9.50;;
32824;SDS011;51060;42.640;24.356;2023-06-26T03:19:04;10.32;;;9.23;;
32824;SDS011;51060;42.640;24.356;2023-06-26T03:21:29;12.10;;;9.57;;
32824;SDS011;51060;42.640;24.356;2023-06-26T03:23:55;11.00;;;9.18;;
32824;SDS011;51060;42.640;24.356;2023-06-26T03:26:21;10.90;;;9.27;;
32824;SDS011;51060;42.640;24.356;2023-06-26T03:28:53;11.90;;;9.23;;
32824;SDS011;51060;42.640;24.356;2023-06-26T03:31:20;11.50;;;10.30;;
32824;SDS011;51060;42.640;24.356;2023-06-26T03:33:46;12.25;;;9.85;;
32824;SDS011;51060;42.640;24.356;2023-06-26T03:36:11;11.05;;;9.38;;
32824;SDS011;51060;42.640;24.356;2023-06-26T03:38:37;14.18;;;10.13;;
32824;SDS011;51060;42.640;24.356;2023-06-26T03:41:03;13.10;;;10.23;;
32824;SDS011;51060;42.640;24.356;2023-06-26T03:43:28;10.85;;;9.70;;
32824;SDS011;51060;42.640;24.356;2023-06-26T03:45:54;13.38;;;10.20;;
32824;SDS011;51060;42.640;24.356;2023-06-26T03:48:19;12.27;;;9.95;;
32824;SDS011;51060;42.640;24.356;2023-06-26T03:50:45;11.25;;;9.98;;
32824;SDS011;51060;42.640;24.356;2023-06-26T03:53:11;11.70;;;8.90;;
32824;SDS011;51060;42.640;24.356;2023-06-26T03:55:37;12.85;;;10.23;;
32824;SDS011;51060;42.640;24.356;2023-06-26T03:58:03;12.63;;;10.07;;
32824;SDS011;51060;42.640;24.356;2023-06-26T04:00:29;12.45;;;10.27;;
32824;SDS011;51060;42.640;24.356;2023-06-26T04:02:55;14.07;;;10.82;;
32824;SDS011;51060;42.640;24.356;2023-06-26T04:05:21;11.48;;;9.38;;
32824;SDS011;51060;42.640;24.356;2023-06-26T04:07:49;11.90;;;10.23;;
32824;SDS011;51060;42.640;24.356;2023-06-26T04:10:15;10.65;;;9.55;;
32824;SDS011;51060;42.640;24.356;2023-06-26T04:12:41;12.52;;;9.73;;
32824;SDS011;51060;42.640;24.356;2023-06-26T04:15:07;13.35;;;10.60;;
32824;SDS011;51060;42.640;24.356;2023-06-26T04:17:33;13.00;;;9.93;;
32824;SDS011;51060;42.640;24.356;2023-06-26T04:19:58;10.43;;;9.43;;
32824;SDS011;51060;42.640;24.356;2023-06-26T04:22:24;10.32;;;8.98;;
32824;SDS011;51060;42.640;24.356;2023-06-26T04:24:51;11.32;;;9.20;;
32824;SDS011;51060;42.640;24.356;2023-06-26T04:27:17;10.82;;;9.30;;
32824;SDS011;51060;42.640;24.356;2023-06-26T04:29:43;11.20;;;8.07;;
32824;SDS011;51060;42.640;24.356;2023-06-26T04:32:09;11.68;;;8.02;;
32824;SDS011;51060;42.640;24.356;2023-06-26T04:34:34;9.55;;;8.15;;
32824;SDS011;51060;42.640;24.356;2023-06-26T04:37:01;11.70;;;8.65;;
32824;SDS011;51060;42.640;24.356;2023-06-26T04:39:29;11.55;;;8.43;;
32824;SDS011;51060;42.640;24.356;2023-06-26T04:41:55;12.23;;;9.38;;
32824;SDS011;51060;42.640;24.356;2023-06-26T04:44:20;13.95;;;10.27;;
32824;SDS011;51060;42.640;24.356;2023-06-26T04:46:46;14.30;;;9.90;;
32824;SDS011;51060;42.640;24.356;2023-06-26T04:49:11;16.00;;;10.95;;
32824;SDS011;51060;42.640;24.356;2023-06-26T04:51:37;14.95;;;10.00;;
32824;SDS011;51060;42.640;24.356;2023-06-26T04:54:09;8.45;;;7.32;;
32824;SDS011;51060;42.640;24.356;2023-06-26T04:56:36;8.98;;;6.95;;
32824;SDS011;51060;42.640;24.356;2023-06-26T04:59:02;8.32;;;7.35;;
32824;SDS011;51060;42.640;24.356;2023-06-26T05:01:28;10.13;;;7.43;;
32824;SDS011;51060;42.640;24.356;2023-06-26T05:03:57;8.93;;;6.78;;
32824;SDS011;51060;42.640;24.356;2023-06-26T05:06:23;10.30;;;7.65;;
32824;SDS011;51060;42.640;24.356;2023-06-26T05:08:49;8.57;;;7.38;;
32824;SDS011;51060;42.640;24.356;2023-06-26T05:11:14;8.85;;;7.78;;
32824;SDS011;51060;42.640;24.356;2023-06-26T05:13:41;9.27;;;7.80;;
32824;SDS011;51060;42.640;24.356;2023-06-26T05:16:06;8.10;;;7.00;;
32824;SDS011;51060;42.640;24.356;2023-06-26T05:18:34;7.85;;;6.90;;
32824;SDS011;51060;42.640;24.356;2023-06-26T05:21:00;7.78;;;6.50;;
32824;SDS011;51060;42.640;24.356;2023-06-26T05:23:25;8.15;;;6.57;;
32824;SDS011;51060;42.640;24.356;2023-06-26T05:25:52;7.40;;;6.70;;
32824;SDS011;51060;42.640;24.356;2023-06-26T05:28:18;7.95;;;6.50;;
32824;SDS011;51060;42.640;24.356;2023-06-26T05:30:44;8.40;;;6.70;;
32824;SDS011;51060;42.640;24.356;2023-06-26T05:33:13;7.95;;;6.85;;
32824;SDS011;51060;42.640;24.356;2023-06-26T05:35:39;7.85;;;6.63;;
32824;SDS011;51060;42.640;24.356;2023-06-26T05:38:06;8.65;;;6.50;;
32824;SDS011;51060;42.640;24.356;2023-06-26T05:40:32;8.98;;;6.60;;
32824;SDS011;51060;42.640;24.356;2023-06-26T05:42:59;9.27;;;6.20;;
32824;SDS011;51060;42.640;24.356;2023-06-26T05:45:25;7.88;;;6.20;;
32824;SDS011;51060;42.640;24.356;2023-06-26T05:47:51;6.88;;;5.75;;
32824;SDS011;51060;42.640;24.356;2023-06-26T05:50:17;8.45;;;6.32;;
32824;SDS011;51060;42.640;24.356;2023-06-26T05:52:43;8.00;;;5.88;;
32824;SDS011;51060;42.640;24.356;2023-06-26T05:55:09;6.85;;;5.38;;
32824;SDS011;51060;42.640;24.356;2023-06-26T05:57:36;6.55;;;5.60;;
32824;SDS011;51060;42.640;24.356;2023-06-26T06:00:03;9.27;;;5.53;;
32824;SDS011;51060;42.640;24.356;2023-06-26T06:02:33;7.07;;;5.85;;
32824;SDS011;51060;42.640;24.356;2023-06-26T06:05:01;7.57;;;5.65;;
32824;SDS011;51060;42.640;24.356;2023-06-26T06:07:26;7.53;;;5.78;;
32824;SDS011;51060;42.640;24.356;2023-06-26T06:09:52;6.82;;;5.35;;
32824;SDS011;51060;42.640;24.356;2023-06-26T06:12:17;6.47;;;5.30;;
32824;SDS011;51060;42.640;24.356;2023-06-26T06:14:43;9.85;;;5.78;;
32824;SDS011;51060;42.640;24.356;2023-06-26T06:17:09;8.38;;;6.05;;
32824;SDS011;51060;42.640;24.356;2023-06-26T06:19:34;6.07;;;5.45;;
32824;SDS011;51060;42.640;24.356;2023-06-26T06:22:00;6.25;;;5.43;;
32824;SDS011;51060;42.640;24.356;2023-06-26T06:24:28;6.07;;;5.32;;
32824;SDS011;51060;42.640;24.356;2023-06-26T06:26:54;7.07;;;4.88;;
32824;SDS011;51060;42.640;24.356;2023-06-26T06:29:19;6.18;;;5.18;;
32824;SDS011;51060;42.640;24.356;2023-06-26T06:31:48;6.80;;;5.68;;
32824;SDS011;51060;42.640;24.356;2023-06-26T06:34:13;7.90;;;5.65;;
32824;SDS011;51060;42.640;24.356;2023-06-26T06:36:39;7.10;;;5.20;;
32824;SDS011;51060;42.640;24.356;2023-06-26T06:39:05;7.13;;;5.45;;
32824;SDS011;51060;42.640;24.356;2023-06-26T06:41:30;7.45;;;5.30;;
32824;SDS011;51060;42.640;24.356;2023-06-26T06:43:56;6.05;;;5.07;;
32824;SDS011;51060;42.640;24.356;2023-06-26T06:46:21;6.65;;;4.93;;
32824;SDS011;51060;42.640;24.356;2023-06-26T06:48:47;5.32;;;4.50;;
32824;SDS011;51060;42.640;24.356;2023-06-26T06:51:13;6.63;;;4.93;;
32824;SDS011;51060;42.640;24.356;2023-06-26T06:53:38;6.35;;;5.28;;
32824;SDS011;51060;42.640;24.356;2023-06-26T06:56:04;5.78;;;4.32;;
32824;SDS011;51060;42.640;24.356;2023-06-26T06:58:29;5.75;;;4.72;;
32824;SDS011;51060;42.640;24.356;2023-06-26T07:00:59;6.32;;;4.75;;
32824;SDS011;51060;42.640;24.356;2023-06-26T07:03:25;5.53;;;4.50;;
32824;SDS011;51060;42.640;24.356;2023-06-26T07:05:50;6.10;;;4.88;;
32824;SDS011;51060;42.640;24.356;2023-06-26T07:08:16;6.05;;;4.65;;
32824;SDS011;51060;42.640;24.356;2023-06-26T07:10:41;6.07;;;4.82;;
32824;SDS011;51060;42.640;24.356;2023-06-26T07:13:07;7.72;;;5.18;;
32824;SDS011;51060;42.640;24.356;2023-06-26T07:15:33;5.57;;;4.95;;
32824;SDS011;51060;42.640;24.356;2023-06-26T07:17:58;6.60;;;5.05;;
32824;SDS011;51060;42.640;24.356;2023-06-26T07:20:24;6.25;;;5.07;;
32824;SDS011;51060;42.640;24.356;2023-06-26T07:22:50;5.70;;;5.00;;
32824;SDS011;51060;42.640;24.356;2023-06-26T07:25:15;5.80;;;5.22;;
32824;SDS011;51060;42.640;24.356;2023-06-26T07:27:41;5.78;;;4.68;;
32824;SDS011;51060;42.640;24.356;2023-06-26T07:30:07;6.47;;;5.18;;
32824;SDS011;51060;42.640;24.356;2023-06-26T07:32:36;5.53;;;4.80;;
32824;SDS011;51060;42.640;24.356;2023-06-26T07:35:02;6.88;;;4.95;;
32824;SDS011;51060;42.640;24.356;2023-06-26T07:37:29;7.45;;;5.20;;
32824;SDS011;51060;42.640;24.356;2023-06-26T07:39:54;6.22;;;5.18;;
32824;SDS011;51060;42.640;24.356;2023-06-26T07:42:20;6.32;;;5.72;;
32824;SDS011;51060;42.640;24.356;2023-06-26T07:44:45;7.43;;;5.40;;
32824;SDS011;51060;42.640;24.356;2023-06-26T07:47:12;5.55;;;4.95;;
32824;SDS011;51060;42.640;24.356;2023-06-26T07:49:37;8.00;;;5.53;;
32824;SDS011;51060;42.640;24.356;2023-06-26T07:52:04;6.90;;;5.50;;
32824;SDS011;51060;42.640;24.356;2023-06-26T07:54:30;7.07;;;5.47;;
32824;SDS011;51060;42.640;24.356;2023-06-26T07:56:56;5.93;;;4.60;;
32824;SDS011;51060;42.640;24.356;2023-06-26T07:59:27;6.03;;;5.18;;
32824;SDS011;51060;42.640;24.356;2023-06-26T08:01:54;6.28;;;5.15;;
32824;SDS011;51060;42.640;24.356;2023-06-26T08:04:22;6.85;;;5.43;;
32824;SDS011;51060;42.640;24.356;2023-06-26T08:06:54;6.15;;;4.70;;
32824;SDS011;51060;42.640;24.356;2023-06-26T08:09:22;7.82;;;4.50;;
32824;SDS011;51060;42.640;24.356;2023-06-26T08:11:49;4.93;;;4.30;;
32824;SDS011;51060;42.640;24.356;2023-06-26T08:14:15;5.13;;;4.63;;
32824;SDS011;51060;42.640;24.356;2023-06-26T08:16:41;4.57;;;4.10;;
32824;SDS011;51060;42.640;24.356;2023-06-26T08:19:09;4.95;;;4.40;;
32824;SDS011;51060;42.640;24.356;2023-06-26T08:21:35;4.75;;;4.25;;
32824;SDS011;51060;42.640;24.356;2023-06-26T08:24:01;5.85;;;3.97;;
32824;SDS011;51060;42.640;24.356;2023-06-26T08:26:27;5.20;;;4.07;;
32824;SDS011;51060;42.640;24.356;2023-06-26T08:28:53;5.68;;;4.30;;
32824;SDS011;51060;42.640;24.356;2023-06-26T08:31:18;5.25;;;4.28;;
32824;SDS011;51060;42.640;24.356;2023-06-26T08:33:44;6.05;;;4.03;;
32824;SDS011;51060;42.640;24.356;2023-06-26T08:36:09;4.90;;;3.90;;
32824;SDS011;51060;42.640;24.356;2023-06-26T08:38:35;5.68;;;3.80;;
32824;SDS011;51060;42.640;24.356;2023-06-26T08:41:01;6.45;;;4.50;;
32824;SDS011;51060;42.640;24.356;2023-06-26T08:43:26;5.75;;;3.90;;
32824;SDS011;51060;42.640;24.356;2023-06-26T08:45:53;5.65;;;4.43;;
32824;SDS011;51060;42.640;24.356;2023-06-26T08:48:20;4.68;;;4.18;;
32824;SDS011;51060;42.640;24.356;2023-06-26T08:50:47;5.35;;;4.10;;
32824;SDS011;51060;42.640;24.356;2023-06-26T08:53:15;4.85;;;3.75;;
32824;SDS011;51060;42.640;24.356;2023-06-26T08:55:49;5.47;;;3.92;;
32824;SDS011;51060;42.640;24.356;2023-06-26T08:58:17;5.90;;;4.13;;
32824;SDS011;51060;42.640;24.356;2023-06-26T09:00:43;4.22;;;3.80;;
32824;SDS011;51060;42.640;24.356;2023-06-26T09:03:09;4.65;;;3.85;;
32824;SDS011;51060;42.640;24.356;2023-06-26T09:05:35;5.30;;;4.20;;
32824;SDS011;51060;42.640;24.356;2023-06-26T09:08:01;4.07;;;3.58;;
32824;SDS011;51060;42.640;24.356;2023-06-26T09:10:27;5.38;;;3.70;;
32824;SDS011;51060;42.640;24.356;2023-06-26T09:12:56;4.93;;;3.92;;
32824;SDS011;51060;42.640;24.356;2023-06-26T09:15:26;6.20;;;3.85;;
32824;SDS011;51060;42.640;24.356;2023-06-26T09:17:56;4.72;;;3.60;;
32824;SDS011;51060;42.640;24.356;2023-06-26T09:20:23;6.70;;;3.90;;
32824;SDS011;51060;42.640;24.356;2023-06-26T09:22:48;4.72;;;3.40;;
32824;SDS011;51060;42.640;24.356;2023-06-26T09:25:14;5.63;;;3.90;;
32824;SDS011;51060;42.640;24.356;2023-06-26T09:27:40;5.45;;;3.58;;
32824;SDS011;51060;42.640;24.356;2023-06-26T09:30:08;6.55;;;3.80;;
32824;SDS011;51060;42.640;24.356;2023-06-26T09:32:36;6.65;;;4.00;;
32824;SDS011;51060;42.640;24.356;2023-06-26T09:35:03;6.10;;;4.30;;
32824;SDS011;51060;42.640;24.356;2023-06-26T09:37:29;7.07;;;3.72;;
32824;SDS011;51060;42.640;24.356;2023-06-26T09:39:55;6.72;;;4.10;;
32824;SDS011;51060;42.640;24.356;2023-06-26T09:42:20;8.05;;;4.13;;
32824;SDS011;51060;42.640;24.356;2023-06-26T09:44:47;5.18;;;3.70;;
32824;SDS011;51060;42.640;24.356;2023-06-26T09:47:18;5.15;;;3.55;;
32824;SDS011;51060;42.640;24.356;2023-06-26T09:49:44;5.35;;;3.75;;
32824;SDS011;51060;42.640;24.356;2023-06-26T09:52:10;5.30;;;4.00;;
32824;SDS011;51060;42.640;24.356;2023-06-26T09:54:40;6.95;;;3.88;;
32824;SDS011;51060;42.640;24.356;2023-06-26T09:57:09;4.72;;;3.75;;
32824;SDS011;51060;42.640;24.356;2023-06-26T09:59:36;4.10;;;3.70;;
32824;SDS011;51060;42.640;24.356;2023-06-26T10:02:02;6.50;;;3.80;;
32824;SDS011;51060;42.640;24.356;2023-06-26T10:04:28;4.38;;;3.97;;
32824;SDS011;51060;42.640;24.356;2023-06-26T10:06:56;4.20;;;3.50;;
32824;SDS011;51060;42.640;24.356;2023-06-26T10:09:23;6.93;;;3.78;;
32824;SDS011;51060;42.640;24.356;2023-06-26T10:14:21;4.05;;;3.40;;
32824;SDS011;51060;42.640;24.356;2023-06-26T10:16:49;4.03;;;3.20;;
32824;SDS011;51060;42.640;24.356;2023-06-26T10:19:16;5.55;;;3.40;;
32824;SDS011;51060;42.640;24.356;2023-06-26T10:21:49;4.68;;;3.67;;
32824;SDS011;51060;42.640;24.356;2023-06-26T10:24:16;3.50;;;3.13;;
32824;SDS011;51060;42.640;24.356;2023-06-26T10:26:44;4.68;;;3.00;;
32824;SDS011;51060;42.640;24.356;2023-06-26T10:29:11;5.07;;;3.08;;
32824;SDS011;51060;42.640;24.356;2023-06-26T10:31:38;3.20;;;2.72;;
32824;SDS011;51060;42.640;24.356;2023-06-26T10:34:06;4.07;;;2.92;;
32824;SDS011;51060;42.640;24.356;2023-06-26T10:36:31;4.15;;;2.67;;
32824;SDS011;51060;42.640;24.356;2023-06-26T10:38:58;5.03;;;3.13;;
32824;SDS011;51060;42.640;24.356;2023-06-26T10:41:27;4.30;;;3.17;;
32824;SDS011;51060;42.640;24.356;2023-06-26T10:46:24;4.00;;;2.72;;
32824;SDS011;51060;42.640;24.356;2023-06-26T10:48:59;4.55;;;2.70;;
32824;SDS011;51060;42.640;24.356;2023-06-26T10:51:26;5.38;;;2.42;;
32824;SDS011;51060;42.640;24.356;2023-06-26T10:53:56;3.95;;;2.78;;
32824;SDS011;51060;42.640;24.356;2023-06-26T10:56:40;4.45;;;2.65;;
32824;SDS011;51060;42.640;24.356;2023-06-26T10:59:18;3.45;;;2.83;;
32824;SDS011;51060;42.640;24.356;2023-06-26T11:01:44;5.68;;;3.40;;
32824;SDS011;51060;42.640;24.356;2023-06-26T11:04:11;4.10;;;2.70;;
32824;SDS011;51060;42.640;24.356;2023-06-26T11:06:39;4.28;;;2.75;;
32824;SDS011;51060;42.640;24.356;2023-06-26T11:14:25;6.00;;;3.13;;
32824;SDS011;51060;42.640;24.356;2023-06-26T11:16:55;4.20;;;2.88;;
32824;SDS011;51060;42.640;24.356;2023-06-26T11:19:21;4.25;;;3.08;;
32824;SDS011;51060;42.640;24.356;2023-06-26T11:21:47;4.82;;;3.15;;
32824;SDS011;51060;42.640;24.356;2023-06-26T11:24:13;3.10;;;2.78;;
32824;SDS011;51060;42.640;24.356;2023-06-26T11:26:39;4.10;;;2.80;;
32824;SDS011;51060;42.640;24.356;2023-06-26T11:29:09;4.63;;;2.70;;
32824;SDS011;51060;42.640;24.356;2023-06-26T11:31:36;3.70;;;3.30;;
32824;SDS011;51060;42.640;24.356;2023-06-26T11:34:07;6.32;;;3.42;;
32824;SDS011;51060;42.640;24.356;2023-06-26T11:36:37;4.72;;;3.25;;
32824;SDS011;51060;42.640;24.356;2023-06-26T11:39:04;5.28;;;3.67;;
32824;SDS011;51060;42.640;24.356;2023-06-26T11:41:34;4.53;;;3.40;;
32824;SDS011;51060;42.640;24.356;2023-06-26T11:44:03;5.28;;;3.15;;
32824;SDS011;51060;42.640;24.356;2023-06-26T11:46:36;3.83;;;3.20;;
32824;SDS011;51060;42.640;24.356;2023-06-26T11:49:05;5.75;;;3.42;;
32824;SDS011;51060;42.640;24.356;2023-06-26T11:51:31;5.00;;;3.22;;
32824;SDS011;51060;42.640;24.356;2023-06-26T11:53:57;6.03;;;3.28;;
32824;SDS011;51060;42.640;24.356;2023-06-26T11:56:23;5.20;;;2.92;;
32824;SDS011;51060;42.640;24.356;2023-06-26T11:59:04;5.60;;;3.17;;
32824;SDS011;51060;42.640;24.356;2023-06-26T12:01:36;5.45;;;3.40;;
32824;SDS011;51060;42.640;24.356;2023-06-26T12:04:06;4.63;;;3.33;;
32824;SDS011;51060;42.640;24.356;2023-06-26T12:06:34;6.43;;;3.53;;
32824;SDS011;51060;42.640;24.356;2023-06-26T12:09:01;4.60;;;3.30;;
32824;SDS011;51060;42.640;24.356;2023-06-26T12:11:31;3.97;;;3.15;;
32824;SDS011;51060;42.640;24.356;2023-06-26T12:13:58;5.18;;;3.30;;
32824;SDS011;51060;42.640;24.356;2023-06-26T12:16:24;4.25;;;3.55;;
32824;SDS011;51060;42.640;24.356;2023-06-26T12:18:50;6.07;;;3.20;;
32824;SDS011;51060;42.640;24.356;2023-06-26T12:21:44;4.57;;;2.90;;
32824;SDS011;51060;42.640;24.356;2023-06-26T12:24:17;5.05;;;3.83;;
32824;SDS011;51060;42.640;24.356;2023-06-26T12:26:45;6.35;;;4.28;;
32824;SDS011;51060;42.640;24.356;2023-06-26T12:29:12;6.38;;;4.88;;
32824;SDS011;51060;42.640;24.356;2023-06-26T12:31:42;4.50;;;3.20;;
32824;SDS011;51060;42.640;24.356;2023-06-26T12:34:13;5.18;;;3.80;;
32824;SDS011;51060;42.640;24.356;2023-06-26T12:36:43;4.53;;;3.17;;
32824;SDS011;51060;42.640;24.356;2023-06-26T12:39:12;3.85;;;2.97;;
32824;SDS011;51060;42.640;24.356;2023-06-26T12:44:26;4.45;;;2.95;;
32824;SDS011;51060;42.640;24.356;2023-06-26T12:46:54;4.43;;;3.60;;
32824;SDS011;51060;42.640;24.356;2023-06-26T12:49:28;3.45;;;3.00;;
32824;SDS011;51060;42.640;24.356;2023-06-26T12:52:01;4.18;;;3.28;;
32824;SDS011;51060;42.640;24.356;2023-06-26T12:54:27;3.38;;;3.00;;
32824;SDS011;51060;42.640;24.356;2023-06-26T12:56:53;4.47;;;3.70;;
32824;SDS011;51060;42.640;24.356;2023-06-26T12:59:19;4.35;;;3.30;;
32824;SDS011;51060;42.640;24.356;2023-06-26T13:01:47;4.88;;;3.33;;
32824;SDS011;51060;42.640;24.356;2023-06-26T13:04:13;3.72;;;3.10;;
32824;SDS011;51060;42.640;24.356;2023-06-26T13:06:39;5.57;;;3.63;;
32824;SDS011;51060;42.640;24.356;2023-06-26T13:09:04;3.78;;;3.03;;
32824;SDS011;51060;42.640;24.356;2023-06-26T13:11:31;6.22;;;3.15;;
32824;SDS011;51060;42.640;24.356;2023-06-26T13:13:57;3.78;;;2.95;;
32824;SDS011;51060;42.640;24.356;2023-06-26T13:16:23;7.05;;;4.53;;
32824;SDS011;51060;42.640;24.356;2023-06-26T13:18:49;4.38;;;3.72;;
32824;SDS011;51060;42.640;24.356;2023-06-26T13:21:15;6.65;;;3.90;;
32824;SDS011;51060;42.640;24.356;2023-06-26T13:23:42;5.90;;;3.95;;
32824;SDS011;51060;42.640;24.356;2023-06-26T13:26:07;4.25;;;3.00;;
32824;SDS011;51060;42.640;24.356;2023-06-26T13:28:33;5.25;;;2.80;;
32824;SDS011;51060;42.640;24.356;2023-06-26T13:30:59;3.67;;;2.72;;
32824;SDS011;51060;42.640;24.356;2023-06-26T13:33:24;5.18;;;2.90;;
32824;SDS011;51060;42.640;24.356;2023-06-26T13:35:53;3.80;;;2.70;;
32824;SDS011;51060;42.640;24.356;2023-06-26T13:38:19;3.17;;;2.38;;
32824;SDS011;51060;42.640;24.356;2023-06-26T13:40:49;3.72;;;2.58;;
32824;SDS011;51060;42.640;24.356;2023-06-26T13:43:20;3.38;;;2.28;;
32824;SDS011;51060;42.640;24.356;2023-06-26T13:45:45;3.58;;;2.80;;
32824;SDS011;51060;42.640;24.356;2023-06-26T13:48:11;3.67;;;2.95;;
32824;SDS011;51060;42.640;24.356;2023-06-26T13:50:37;3.10;;;2.63;;
32824;SDS011;51060;42.640;24.356;2023-06-26T13:53:03;3.92;;;2.92;;
32824;SDS011;51060;42.640;24.356;2023-06-26T13:55:28;8.52;;;6.05;;
32824;SDS011;51060;42.640;24.356;2023-06-26T13:57:54;14.10;;;9.55;;
32824;SDS011;51060;42.640;24.356;2023-06-26T14:00:20;7.80;;;5.22;;
32824;SDS011;51060;42.640;24.356;2023-06-26T14:02:48;5.68;;;4.75;;
32824;SDS011;51060;42.640;24.356;2023-06-26T14:05:14;3.95;;;3.30;;
32824;SDS011;51060;42.640;24.356;2023-06-26T14:07:40;4.80;;;4.38;;
32824;SDS011;51060;42.640;24.356;2023-06-26T14:10:05;4.30;;;3.90;;
32824;SDS011;51060;42.640;24.356;2023-06-26T14:12:32;4.45;;;3.50;;
32824;SDS011;51060;42.640;24.356;2023-06-26T14:14:58;4.00;;;3.13;;
32824;SDS011;51060;42.640;24.356;2023-06-26T14:17:24;3.28;;;2.88;;
32824;SDS011;51060;42.640;24.356;2023-06-26T14:19:51;4.40;;;3.15;;
32824;SDS011;51060;42.640;24.356;2023-06-26T14:22:17;4.43;;;3.10;;
32824;SDS011;51060;42.640;24.356;2023-06-26T14:24:43;8.43;;;4.75;;
32824;SDS011;51060;42.640;24.356;2023-06-26T14:27:09;7.38;;;4.45;;
32824;SDS011;51060;42.640;24.356;2023-06-26T14:29:35;4.30;;;3.10;;
32824;SDS011;51060;42.640;24.356;2023-06-26T14:32:01;5.03;;;3.42;;
32824;SDS011;51060;42.640;24.356;2023-06-26T14:34:27;5.75;;;3.40;;
32824;SDS011;51060;42.640;24.356;2023-06-26T14:36:53;4.43;;;3.75;;
32824;SDS011;51060;42.640;24.356;2023-06-26T14:39:18;6.63;;;4.95;;
32824;SDS011;51060;42.640;24.356;2023-06-26T14:41:44;3.92;;;3.53;;
32824;SDS011;51060;42.640;24.356;2023-06-26T14:44:09;7.80;;;4.22;;
32824;SDS011;51060;42.640;24.356;2023-06-26T14:46:36;8.43;;;5.13;;